Time;durP1;ratioP1;P1;durP2;ratioP2;P2;SDS_P1;SDS_P2;PMS_P1;PMS_P2;Temp;Humidity;BMP_temperature;BMP_pressure;BME280_temperature;BME280_humidity;BME280_pressure;Samples;Min_cycle;Max_cycle;Signal;HPM_P1;HPM_P2
2021/05/22 00:00:34;;;;;;;5.10;4.30;;;;;;;12.73;57.99;99655.44;5121120;28;20171;-65
2021/05/22 00:02:59;;;;;;;4.90;4.00;;;;;;;12.84;56.37;99646.53;5120800;28;20182;-64
2021/05/22 00:05:24;;;;;;;7.73;4.03;;;;;;;12.82;56.27;99645.72;5121274;28;20475;-63
2021/05/22 00:07:50;;;;;;;4.13;3.73;;;;;;;12.84;55.95;99641.31;5121159;28;20171;-64
2021/05/22 00:10:15;;;;;;;4.27;3.67;;;;;;;12.45;56.78;99644.56;5121068;28;20171;-64
2021/05/22 00:12:42;;;;;;;8.03;4.17;;;;;;;13.15;54.84;99633.75;5121077;28;20167;-64
2021/05/22 00:15:10;;;;;;;5.60;3.70;;;;;;;12.72;55.59;99642.38;5120724;28;20210;-64
2021/05/22 00:17:35;;;;;;;5.30;3.70;;;;;;;12.69;54.33;99637.19;5120658;28;20414;-64
2021/05/22 00:20:00;;;;;;;7.40;3.63;;;;;;;12.59;55.59;99642.56;5121201;28;20838;-64
2021/05/22 00:22:27;;;;;;;7.13;4.03;;;;;;;12.79;55.10;99634.41;5120403;28;20168;-64
2021/05/22 00:24:52;;;;;;;8.30;4.00;;;;;;;12.24;56.82;99624.84;5119471;28;20211;-64
2021/05/22 00:27:18;;;;;;;7.50;3.80;;;;;;;12.72;56.00;99622.31;5120892;28;20466;-64
2021/05/22 00:29:43;;;;;;;6.80;3.53;;;;;;;12.47;56.09;99624.47;5120418;28;20442;-64
2021/05/22 00:32:09;;;;;;;6.23;3.63;;;;;;;12.27;56.18;99622.19;5120864;28;20175;-63
2021/05/22 00:34:34;;;;;;;6.27;3.93;;;;;;;12.62;55.79;99618.13;5120804;28;20202;-64
2021/05/22 00:36:59;;;;;;;9.53;3.70;;;;;;;12.53;56.21;99626.13;5120350;28;20563;-64
2021/05/22 00:39:25;;;;;;;6.10;3.53;;;;;;;12.89;55.67;99622.00;5120496;28;20409;-64
2021/05/22 00:41:50;;;;;;;6.10;3.83;;;;;;;12.81;56.10;99616.06;5120586;28;20438;-64
2021/05/22 00:44:15;;;;;;;7.67;3.93;;;;;;;13.03;55.23;99621.78;5120364;28;20537;-64
2021/05/22 00:46:40;;;;;;;7.03;4.43;;;;;;;12.75;56.32;99630.13;5120323;28;20168;-64
2021/05/22 00:49:06;;;;;;;5.60;3.77;;;;;;;12.41;56.51;99628.06;5120735;28;20472;-64
2021/05/22 00:51:31;;;;;;;6.37;3.90;;;;;;;12.32;56.37;99629.97;5120188;27;20220;-64
2021/05/22 00:53:56;;;;;;;5.13;3.67;;;;;;;12.33;56.33;99632.53;5120097;28;20164;-64
2021/05/22 00:56:22;;;;;;;4.83;3.40;;;;;;;12.33;57.37;99618.63;5120642;28;20185;-64
2021/05/22 00:58:47;;;;;;;9.83;3.80;;;;;;;11.93;57.76;99626.13;5120226;28;20176;-64
2021/05/22 01:01:12;;;;;;;10.80;4.20;;;;;;;12.08;57.01;99617.25;5119863;28;20167;-65
2021/05/22 01:03:43;;;;;;;4.20;3.60;;;;;;;12.28;56.84;99611.69;5119625;28;20167;-65
2021/05/22 01:06:16;;;;;;;6.10;3.80;;;;;;;11.87;58.06;99620.13;5119190;28;20286;-65
2021/05/22 01:08:50;;;;;;;6.50;4.03;;;;;;;12.41;56.97;99617.59;5119131;28;20417;-65
2021/05/22 01:11:21;;;;;;;5.20;3.50;;;;;;;12.20;57.07;99625.78;5119533;28;20433;-64
2021/05/22 01:13:53;;;;;;;6.10;3.93;;;;;;;12.39;56.51;99621.97;5119716;28;20704;-64
2021/05/22 01:16:20;;;;;;;7.13;4.20;;;;;;;11.95;57.22;99629.59;5119750;28;20448;-64
2021/05/22 01:18:45;;;;;;;5.87;4.20;;;;;;;12.08;56.54;99625.09;5119553;28;20482;-64
2021/05/22 01:21:10;;;;;;;5.53;3.40;;;;;;;11.89;56.50;99624.44;5119265;28;20405;-64
2021/05/22 01:23:39;;;;;;;4.77;3.20;;;;;;;12.05;56.11;99630.31;5118764;28;20172;-64
2021/05/22 01:26:05;;;;;;;5.27;4.00;;;;;;;12.24;54.95;99627.47;5118413;28;20234;-63
2021/05/22 01:28:33;;;;;;;4.97;3.93;;;;;;;12.12;55.09;99616.31;5118921;28;20446;-64
2021/05/22 01:30:59;;;;;;;5.60;3.40;;;;;;;12.13;55.11;99604.94;5119117;28;20441;-64
2021/05/22 01:33:24;;;;;;;8.33;3.60;;;;;;;12.21;54.66;99624.91;5119251;28;20508;-64
2021/05/22 01:35:50;;;;;;;7.30;3.70;;;;;;;12.30;53.94;99609.09;5119929;28;20511;-64
2021/05/22 01:38:15;;;;;;;5.90;3.83;;;;;;;12.10;54.38;99606.78;5119604;28;20167;-64
2021/05/22 01:40:41;;;;;;;6.87;3.83;;;;;;;12.32;53.38;99601.22;5119281;28;20163;-64
2021/05/22 01:43:08;;;;;;;4.80;3.43;;;;;;;12.39;53.23;99593.22;5119540;28;20543;-64
2021/05/22 01:45:37;;;;;;;9.80;3.57;;;;;;;12.51;53.00;99589.56;5118396;28;20282;-64
2021/05/22 01:48:03;;;;;;;5.10;3.90;;;;;;;12.26;52.77;99596.94;5118387;28;20414;-64
2021/05/22 01:50:33;;;;;;;9.10;3.60;;;;;;;12.62;51.81;99595.47;5118645;28;20416;-65
2021/05/22 01:53:01;;;;;;;3.80;3.10;;;;;;;12.49;52.07;99593.06;5118871;28;20567;-64
2021/05/22 01:55:27;;;;;;;6.77;3.40;;;;;;;12.34;52.68;99596.81;5118875;28;20839;-63
2021/05/22 01:57:53;;;;;;;4.70;3.40;;;;;;;12.18;52.83;99599.69;5118792;28;20484;-64
2021/05/22 02:00:18;;;;;;;4.50;3.10;;;;;;;12.22;52.97;99598.75;5117803;28;20501;-64
2021/05/22 02:02:56;;;;;;;6.63;3.30;;;;;;;12.21;53.05;99598.78;5118714;28;20164;-64
2021/05/22 02:05:22;;;;;;;6.30;3.40;;;;;;;12.42;52.59;99600.16;5117953;28;20203;-64
2021/05/22 02:07:48;;;;;;;5.70;3.33;;;;;;;11.78;54.32;99595.88;5118748;28;20413;-65
2021/05/22 02:10:13;;;;;;;4.93;3.60;;;;;;;11.76;54.52;99602.84;5118512;28;20160;-64
2021/05/22 02:12:40;;;;;;;4.27;3.13;;;;;;;11.82;54.73;99595.81;5117745;28;20440;-65
2021/05/22 02:15:09;;;;;;;7.07;4.20;;;;;;;11.84;55.12;99600.13;5117978;28;20168;-64
2021/05/22 02:17:34;;;;;;;5.13;3.30;;;;;;;11.74;55.33;99599.38;5119117;28;20417;-64
2021/05/22 02:20:00;;;;;;;6.33;3.20;;;;;;;11.73;56.21;99602.00;5117960;28;20822;-64
2021/05/22 02:22:25;;;;;;;6.10;3.53;;;;;;;12.18;55.53;99597.06;5117752;28;20172;-64
2021/05/22 02:24:51;;;;;;;6.03;3.33;;;;;;;12.07;55.00;99605.06;5117860;28;20230;-64
2021/05/22 02:27:17;;;;;;;9.60;4.30;;;;;;;12.10;55.47;99601.53;5117903;28;20167;-64
2021/05/22 02:29:43;;;;;;;6.77;3.40;;;;;;;11.92;56.90;99597.41;5118100;28;20781;-64
2021/05/22 02:32:09;;;;;;;12.67;3.73;;;;;;;11.85;56.72;99603.59;5117749;28;20198;-64
2021/05/22 02:34:47;;;;;;;6.93;3.47;;;;;;;12.05;56.34;99598.13;5118577;28;20433;-64
2021/05/22 02:37:16;;;;;;;5.20;3.50;;;;;;;11.94;56.75;99593.03;5118472;28;20413;-64
2021/05/22 02:39:42;;;;;;;5.40;3.57;;;;;;;11.75;58.23;99597.66;5118527;28;20406;-64
2021/05/22 02:42:08;;;;;;;6.27;3.73;;;;;;;11.39;58.20;99603.34;5118119;28;20408;-64
2021/05/22 02:44:33;;;;;;;5.80;3.53;;;;;;;11.73;57.68;99587.22;5118356;28;20755;-64
2021/05/22 02:47:00;;;;;;;5.90;3.27;;;;;;;11.56;58.58;99592.66;5117811;28;20410;-64
2021/05/22 02:49:28;;;;;;;6.57;3.83;;;;;;;11.65;58.21;99585.59;5118260;28;20163;-64
2021/05/22 02:51:59;;;;;;;5.73;3.97;;;;;;;11.67;58.27;99587.31;5117500;28;20870;-64
2021/05/22 02:54:26;;;;;;;5.20;3.20;;;;;;;11.01;59.57;99581.13;5118318;28;20398;-64
2021/05/22 02:56:53;;;;;;;6.80;3.70;;;;;;;11.40;58.58;99572.88;5117735;28;20441;-65
2021/05/22 02:59:20;;;;;;;5.13;3.33;;;;;;;11.54;58.80;99573.56;5118312;28;20413;-64
2021/05/22 03:01:46;;;;;;;7.30;3.37;;;;;;;11.64;59.24;99571.69;5117838;28;20512;-65
2021/05/22 03:04:11;;;;;;;9.47;3.67;;;;;;;11.46;59.42;99573.66;5118313;28;20408;-64
2021/05/22 03:06:37;;;;;;;6.80;3.60;;;;;;;11.18;59.52;99572.28;5117473;28;20195;-64
2021/05/22 03:09:02;;;;;;;5.40;3.93;;;;;;;11.21;59.44;99567.03;5118079;28;20167;-65
2021/05/22 03:11:28;;;;;;;11.53;4.20;;;;;;;11.56;58.42;99570.94;5118405;28;20178;-65
2021/05/22 03:13:53;;;;;;;5.70;3.67;;;;;;;11.38;58.76;99562.47;5121433;28;20250;-64
2021/05/22 03:16:19;;;;;;;6.33;3.37;;;;;;;11.46;58.52;99564.97;5122702;28;20156;-64
2021/05/22 03:18:45;;;;;;;5.17;3.83;;;;;;;11.37;59.01;99559.88;5122087;28;20163;-64
2021/05/22 03:21:11;;;;;;;5.37;3.70;;;;;;;11.50;59.31;99553.63;5121732;27;20172;-64
2021/05/22 03:23:37;;;;;;;4.83;3.30;;;;;;;11.52;58.84;99558.81;5122404;28;20160;-64
2021/05/22 03:26:03;;;;;;;5.20;3.50;;;;;;;11.70;57.87;99555.91;5121599;28;20484;-64
2021/05/22 03:28:28;;;;;;;5.97;3.53;;;;;;;11.58;58.76;99553.50;5121745;28;20395;-64
2021/05/22 03:30:53;;;;;;;4.60;3.70;;;;;;;11.54;59.13;99554.41;5122402;28;20262;-64
2021/05/22 03:33:19;;;;;;;7.10;3.90;;;;;;;11.72;58.74;99553.31;5121773;27;20254;-64
2021/05/22 03:35:44;;;;;;;6.60;3.90;;;;;;;11.45;59.54;99553.66;5121645;28;20179;-64
2021/05/22 03:38:09;;;;;;;3.90;3.50;;;;;;;11.26;59.72;99560.00;5122325;28;20296;-66
2021/05/22 03:40:35;;;;;;;8.10;3.97;;;;;;;11.53;59.85;99556.16;5121840;28;20270;-66
2021/05/22 03:43:00;;;;;;;7.20;3.67;;;;;;;10.92;61.36;99556.03;5121579;28;20167;-66
2021/05/22 03:45:25;;;;;;;8.70;3.40;;;;;;;11.43;59.65;99558.03;5122018;28;20202;-65
2021/05/22 03:47:51;;;;;;;7.17;3.93;;;;;;;11.08;61.25;99556.72;5121625;28;20175;-64
2021/05/22 03:50:16;;;;;;;7.60;3.10;;;;;;;11.33;60.34;99566.88;5121455;28;20172;-65
2021/05/22 03:52:41;;;;;;;11.43;4.03;;;;;;;12.14;57.49;99548.34;5121623;27;20168;-65
2021/05/22 03:55:08;;;;;;;4.27;3.40;;;;;;;13.10;54.58;99546.66;5121363;28;20606;-64
2021/05/22 03:57:34;;;;;;;6.17;3.20;;;;;;;13.29;54.21;99555.00;5121348;28;20171;-64
2021/05/22 03:59:59;;;;;;;4.50;3.30;;;;;;;12.85;54.95;99554.09;5121665;28;20406;-65
2021/05/22 04:02:25;;;;;;;9.60;3.67;;;;;;;14.14;51.44;99546.13;5121115;27;20529;-64
2021/05/22 04:04:50;;;;;;;5.57;3.40;;;;;;;14.19;51.07;99545.16;5121054;27;20455;-64
2021/05/22 04:07:15;;;;;;;7.27;3.40;;;;;;;14.60;50.25;99551.09;5121410;28;20166;-65
2021/05/22 04:09:40;;;;;;;4.03;3.40;;;;;;;14.37;50.63;99551.69;5121053;28;20439;-64
2021/05/22 04:12:06;;;;;;;6.40;3.20;;;;;;;15.26;47.96;99535.34;5120479;28;20230;-64
2021/05/22 04:14:34;;;;;;;5.37;2.90;;;;;;;15.19;47.45;99539.91;5121374;28;20167;-65
2021/05/22 04:16:59;;;;;;;6.67;3.23;;;;;;;15.33;47.19;99539.53;5120998;28;20174;-65
2021/05/22 04:19:25;;;;;;;5.53;3.20;;;;;;;16.13;45.51;99534.44;5120949;28;20380;-65
2021/05/22 04:21:50;;;;;;;4.87;3.10;;;;;;;15.20;47.97;99536.38;5121253;28;20168;-64
2021/05/22 04:24:16;;;;;;;7.63;2.93;;;;;;;15.78;45.89;99546.91;5120178;28;20219;-65
2021/05/22 04:26:41;;;;;;;8.87;3.30;;;;;;;15.65;46.39;99537.69;5120695;28;20199;-66
2021/05/22 04:29:07;;;;;;;5.07;4.00;;;;;;;15.36;47.64;99542.06;5121264;28;20214;-64
2021/05/22 04:31:32;;;;;;;5.57;3.30;;;;;;;15.83;46.27;99539.78;5120548;28;20206;-65
2021/05/22 04:33:57;;;;;;;4.23;3.33;;;;;;;16.14;44.94;99536.19;5120675;27;20195;-64
2021/05/22 04:36:23;;;;;;;5.30;3.20;;;;;;;15.82;45.87;99539.84;5121222;28;20418;-65
2021/05/22 04:38:48;;;;;;;5.67;3.13;;;;;;;16.74;43.75;99537.69;5120430;28;20186;-64
2021/05/22 04:41:14;;;;;;;5.53;2.93;;;;;;;17.03;42.47;99535.81;5120658;28;20167;-64
2021/05/22 04:43:39;;;;;;;5.63;2.90;;;;;;;17.11;42.50;99531.97;5120940;28;20165;-65
2021/05/22 04:46:04;;;;;;;4.30;2.80;;;;;;;17.63;41.33;99525.66;5120357;28;20222;-65
2021/05/22 04:48:30;;;;;;;5.10;2.93;;;;;;;17.56;40.74;99532.94;5120388;28;20168;-65
2021/05/22 04:50:55;;;;;;;6.63;2.83;;;;;;;18.14;39.95;99535.09;5120491;28;20245;-65
2021/05/22 04:53:22;;;;;;;6.73;3.23;;;;;;;19.53;37.17;99510.50;5120279;27;20172;-66
2021/05/22 04:55:48;;;;;;;4.90;2.93;;;;;;;18.19;39.36;99526.97;5120132;28;20241;-65
2021/05/22 04:58:13;;;;;;;4.93;2.80;;;;;;;18.82;38.40;99526.94;5120934;28;20425;-64
2021/05/22 05:00:38;;;;;;;5.67;2.90;;;;;;;18.17;39.32;99534.94;5120279;28;20168;-64
2021/05/22 05:03:04;;;;;;;4.43;2.70;;;;;;;18.52;38.48;99521.19;5120028;28;20164;-64
2021/05/22 05:05:29;;;;;;;5.33;2.47;;;;;;;18.81;37.60;99525.22;5120541;28;20453;-64
2021/05/22 05:07:54;;;;;;;5.30;2.50;;;;;;;19.29;36.79;99524.88;5119891;28;20224;-65
2021/05/22 05:10:19;;;;;;;3.20;2.70;;;;;;;20.55;34.66;99522.38;5120114;28;20199;-64
2021/05/22 05:12:45;;;;;;;4.53;2.70;;;;;;;20.15;34.56;99520.81;5120246;28;20267;-64
2021/05/22 05:15:10;;;;;;;3.43;2.70;;;;;;;20.44;34.28;99521.13;5119923;28;20214;-64
2021/05/22 05:17:36;;;;;;;5.50;2.80;;;;;;;19.83;36.03;99517.94;5119833;28;20232;-64
2021/05/22 05:20:02;;;;;;;4.07;2.37;;;;;;;19.47;36.05;99531.09;5120227;28;20491;-65
2021/05/22 05:22:27;;;;;;;3.83;2.90;;;;;;;18.77;37.24;99526.25;5119639;28;20167;-64
2021/05/22 05:24:55;;;;;;;3.90;2.70;;;;;;;18.87;37.59;99518.78;5119402;28;20315;-65
2021/05/22 05:27:21;;;;;;;5.03;2.67;;;;;;;18.15;38.24;99523.59;5119944;28;20186;-65
2021/05/22 05:29:46;;;;;;;3.60;2.43;;;;;;;16.32;41.37;99539.97;5119657;28;20794;-66
2021/05/22 05:32:12;;;;;;;6.50;2.57;;;;;;;15.93;43.88;99532.47;5119369;28;20814;-65
2021/05/22 05:34:41;;;;;;;5.40;2.47;;;;;;;16.20;43.22;99529.00;5119112;28;20173;-65
2021/05/22 05:37:08;;;;;;;4.83;2.80;;;;;;;15.40;44.37;99530.56;5119453;28;20163;-64
2021/05/22 05:39:33;;;;;;;6.10;2.70;;;;;;;15.25;46.04;99525.72;5119664;28;20413;-65
2021/05/22 05:41:58;;;;;;;3.60;2.73;;;;;;;14.82;46.40;99530.44;5119714;28;20454;-65
2021/05/22 05:44:24;;;;;;;3.50;2.37;;;;;;;15.52;44.50;99523.19;5119317;28;20171;-64
2021/05/22 05:46:49;;;;;;;7.47;3.10;;;;;;;15.41;45.10;99526.16;5119381;28;20529;-65
2021/05/22 05:49:14;;;;;;;5.10;2.77;;;;;;;15.55;45.56;99529.22;5119875;28;20168;-64
2021/05/22 05:51:40;;;;;;;3.40;2.50;;;;;;;15.62;44.20;99532.53;5119202;28;20470;-63
2021/05/22 05:54:05;;;;;;;4.80;2.23;;;;;;;19.04;41.69;99514.56;5119359;28;20189;-62
2021/05/22 05:56:31;;;;;;;4.00;2.60;;;;;;;17.33;39.93;99518.88;5119709;28;20166;-64
2021/05/22 05:58:56;;;;;;;4.83;2.60;;;;;;;17.36;40.21;99535.47;5119329;28;20167;-64
2021/05/22 06:01:21;;;;;;;3.70;2.80;;;;;;;18.52;37.62;99514.13;5118964;28;20412;-64
2021/05/22 06:03:48;;;;;;;3.57;2.50;;;;;;;17.64;38.89;99524.72;5119585;28;20167;-63
2021/05/22 06:06:13;;;;;;;7.83;3.00;;;;;;;18.92;36.87;99529.19;5118843;28;20202;-64
2021/05/22 06:08:38;;;;;;;2.93;2.43;;;;;;;19.73;35.52;99518.41;5119037;28;20413;-64
2021/05/22 06:11:06;;;;;;;5.50;2.87;;;;;;;18.17;38.44;99529.66;5119265;28;20182;-64
2021/05/22 06:13:33;;;;;;;3.43;2.80;;;;;;;17.88;38.71;99544.00;5118850;28;20197;-65
2021/05/22 06:18:35;;;;;;;3.93;2.63;;;;;;;15.70;43.74;99535.78;5116985;28;20818;-64
2021/05/22 06:21:02;;;;;;;5.20;2.80;;;;;;;15.61;43.94;99536.94;5118031;28;20388;-63
2021/05/22 06:23:27;;;;;;;6.47;3.40;;;;;;;14.92;46.01;99533.69;5119179;28;20428;-63
2021/05/22 06:25:53;;;;;;;3.97;2.90;;;;;;;14.57;46.89;99538.06;5118287;28;20855;-64
2021/05/22 06:28:19;;;;;;;4.40;3.13;;;;;;;14.45;47.03;99537.50;5118421;28;20171;-65
2021/05/22 06:30:44;;;;;;;7.10;2.80;;;;;;;14.46;47.74;99549.72;5119158;28;20155;-65
2021/05/22 06:33:10;;;;;;;6.70;3.00;;;;;;;14.83;47.22;99534.81;5118370;28;20179;-65
2021/05/22 06:35:35;;;;;;;4.30;3.10;;;;;;;15.02;46.99;99544.78;5118433;28;20178;-66
2021/05/22 06:38:00;;;;;;;6.20;2.97;;;;;;;14.09;48.62;99542.75;5118966;28;20159;-64
2021/05/22 06:40:25;;;;;;;3.23;2.90;;;;;;;14.82;47.70;99533.06;5118509;28;20178;-66
2021/05/22 06:42:51;;;;;;;5.60;3.13;;;;;;;14.93;46.98;99533.63;5118501;28;20180;-65
2021/05/22 06:45:17;;;;;;;4.10;2.90;;;;;;;14.84;47.96;99544.38;5119053;28;20187;-65
2021/05/22 06:47:42;;;;;;;4.50;2.83;;;;;;;14.29;48.82;99544.03;5120849;28;20167;-64
2021/05/22 06:50:09;;;;;;;8.00;3.10;;;;;;;14.71;47.70;99529.88;5112664;28;20426;-64
2021/05/22 06:52:34;;;;;;;5.37;3.00;;;;;;;15.10;46.49;99546.28;5118050;28;20198;-65
2021/05/22 06:54:59;;;;;;;4.67;2.80;;;;;;;14.92;47.14;99531.91;5122707;27;20402;-64
2021/05/22 06:57:25;;;;;;;6.17;3.67;;;;;;;15.31;46.35;99536.91;5109708;27;20180;-63
2021/05/22 06:59:52;;;;;;;5.60;2.90;;;;;;;15.04;47.18;99537.72;5102373;28;20160;-63
2021/05/22 07:02:17;;;;;;;4.23;2.63;;;;;;;15.27;46.69;99539.69;5101455;28;20164;-62
2021/05/22 07:04:43;;;;;;;3.33;2.97;;;;;;;15.36;45.96;99535.94;5101965;28;20806;-63
2021/05/22 07:07:08;;;;;;;5.17;2.80;;;;;;;15.81;44.68;99533.69;5102125;28;20172;-63
2021/05/22 07:09:33;;;;;;;4.67;3.20;;;;;;;15.73;45.66;99535.69;5101847;28;20175;-64
2021/05/22 07:11:59;;;;;;;3.93;2.80;;;;;;;15.72;45.66;99531.34;5101511;28;20589;-62
2021/05/22 07:14:25;;;;;;;4.50;3.10;;;;;;;15.39;45.87;99536.69;5102217;28;20256;-63
2021/05/22 07:16:51;;;;;;;3.57;3.00;;;;;;;15.25;46.17;99537.13;5101752;28;20172;-62
2021/05/22 07:19:16;;;;;;;5.97;2.87;;;;;;;14.68;47.53;99538.69;5101539;28;20388;-65
2021/05/22 07:21:42;;;;;;;4.90;2.93;;;;;;;15.02;47.08;99529.91;5101546;28;20230;-65
2021/05/22 07:24:07;;;;;;;6.93;3.20;;;;;;;14.62;47.72;99537.03;5100708;28;20422;-64
2021/05/22 07:26:33;;;;;;;7.03;2.90;;;;;;;14.97;47.05;99542.28;5101186;28;20191;-64
2021/05/22 07:28:58;;;;;;;4.73;2.97;;;;;;;14.91;47.31;99522.34;5101900;28;20165;-64
2021/05/22 07:31:23;;;;;;;4.80;2.73;;;;;;;15.96;44.92;99536.75;5101633;28;20560;-65
2021/05/22 07:33:51;;;;;;;3.10;2.80;;;;;;;16.12;44.05;99540.59;5101629;28;20178;-65
2021/05/22 07:36:17;;;;;;;4.30;3.10;;;;;;;15.38;45.81;99536.75;5101923;28;20156;-64
2021/05/22 07:38:42;;;;;;;6.10;3.20;;;;;;;15.95;45.11;99528.03;5101325;28;20408;-64
2021/05/22 07:41:09;;;;;;;3.83;2.57;;;;;;;15.25;46.28;99520.47;5101417;28;20526;-64
2021/05/22 07:43:35;;;;;;;3.63;3.33;;;;;;;15.44;45.74;99526.94;5101799;28;20243;-64
2021/05/22 07:46:00;;;;;;;3.10;2.53;;;;;;;15.15;46.75;99528.66;5101276;28;20909;-64
2021/05/22 07:48:25;;;;;;;3.57;2.90;;;;;;;15.78;45.48;99536.41;5101256;28;20443;-65
2021/05/22 07:50:53;;;;;;;3.97;2.97;;;;;;;14.85;47.08;99532.13;5101530;28;20164;-64
2021/05/22 07:53:19;;;;;;;4.87;3.17;;;;;;;15.34;46.10;99541.22;5100978;28;20217;-63
2021/05/22 07:55:44;;;;;;;4.30;2.83;;;;;;;15.01;46.82;99528.19;5100832;28;20388;-65
2021/05/22 07:58:10;;;;;;;5.37;2.90;;;;;;;15.52;45.67;99524.09;5099840;28;20722;-66
2021/05/22 08:00:35;;;;;;;6.43;3.10;;;;;;;15.14;46.86;99533.91;5100807;28;20164;-64
2021/05/22 08:03:00;;;;;;;4.13;3.00;;;;;;;15.03;46.51;99538.63;5100662;28;20164;-65
2021/05/22 08:05:26;;;;;;;6.43;2.97;;;;;;;14.79;46.99;99534.03;5101093;28;20453;-64
2021/05/22 08:07:51;;;;;;;3.30;2.63;;;;;;;15.21;46.00;99508.34;5100639;28;20191;-65
2021/05/22 08:10:18;;;;;;;5.57;3.07;;;;;;;15.08;46.94;99519.22;5100602;28;20169;-64
2021/05/22 08:12:43;;;;;;;4.70;2.87;;;;;;;15.23;46.28;99522.31;5100970;28;20164;-64
2021/05/22 08:15:10;;;;;;;3.77;2.80;;;;;;;15.28;45.98;99525.66;5100544;28;20439;-64
2021/05/22 08:17:35;;;;;;;5.37;3.37;;;;;;;14.82;47.51;99536.53;5099834;28;20171;-64
2021/05/22 08:20:00;;;;;;;8.13;2.90;;;;;;;14.70;48.30;99536.03;5100922;28;20519;-64
2021/05/22 08:22:26;;;;;;;4.40;2.90;;;;;;;15.06;47.90;99526.28;5100407;28;20168;-64
2021/05/22 08:24:51;;;;;;;4.23;3.13;;;;;;;14.81;49.65;99542.69;5100332;28;20212;-64
2021/05/22 08:27:18;;;;;;;5.20;3.10;;;;;;;14.61;49.74;99537.09;5100904;28;20561;-64
2021/05/22 08:29:44;;;;;;;3.67;3.10;;;;;;;14.60;50.43;99543.22;5100351;28;20191;-64
2021/05/22 08:32:09;;;;;;;5.23;3.30;;;;;;;14.49;50.01;99549.63;5100111;28;20380;-64
2021/05/22 08:34:39;;;;;;;4.40;2.97;;;;;;;15.11;48.85;99539.28;5100630;28;20206;-65
2021/05/22 08:37:04;;;;;;;4.43;3.20;;;;;;;15.41;49.06;99541.91;5099705;28;20613;-64
2021/05/22 08:39:29;;;;;;;5.60;3.23;;;;;;;14.92;50.06;99544.19;5100132;28;20433;-65
2021/05/22 08:41:55;;;;;;;4.87;3.10;;;;;;;15.08;49.00;99545.47;5100216;28;20534;-64
2021/05/22 08:44:20;;;;;;;4.30;2.90;;;;;;;14.92;50.15;99546.78;5099885;28;20175;-64
2021/05/22 08:46:46;;;;;;;6.97;3.47;;;;;;;15.13;49.24;99568.97;5099871;28;20200;-64
2021/05/22 08:49:13;;;;;;;3.73;3.00;;;;;;;15.27;49.46;99545.78;5100366;28;20533;-64
2021/05/22 08:51:38;;;;;;;6.73;3.10;;;;;;;15.21;49.45;99545.09;5099772;28;20589;-64
2021/05/22 08:54:04;;;;;;;6.57;3.33;;;;;;;14.73;50.64;99555.16;5099669;28;20410;-63
2021/05/22 08:56:29;;;;;;;5.50;3.40;;;;;;;14.89;51.10;99544.28;5100219;28;20300;-64
2021/05/22 08:58:55;;;;;;;3.97;3.20;;;;;;;14.70;52.02;99560.50;5099648;28;20427;-65
2021/05/22 09:01:20;;;;;;;6.50;3.30;;;;;;;14.80;52.24;99566.34;5099578;28;20179;-65
2021/05/22 09:03:46;;;;;;;7.07;3.67;;;;;;;14.99;52.51;99571.97;5099945;28;20172;-63
2021/05/22 09:06:12;;;;;;;5.67;4.00;;;;;;;14.07;55.80;99568.16;5099405;28;20208;-63
2021/05/22 09:08:37;;;;;;;7.43;5.10;;;;;;;14.52;55.51;99574.03;5099320;28;20411;-63
2021/05/22 09:11:05;;;;;;;4.00;3.40;;;;;;;14.03;56.12;99579.59;5099811;28;20533;-64
2021/05/22 09:13:31;;;;;;;4.30;3.27;;;;;;;14.06;56.54;99582.16;5099437;28;20164;-64
2021/05/22 09:16:09;;;;;;;7.13;3.57;;;;;;;14.18;56.03;99593.22;5099527;28;20414;-63
2021/05/22 09:18:37;;;;;;;6.20;3.60;;;;;;;13.29;59.39;99575.94;5099182;28;20416;-64
2021/05/22 09:21:05;;;;;;;4.33;3.67;;;;;;;13.37;58.95;99587.13;5099008;28;20413;-64
2021/05/22 09:23:35;;;;;;;4.10;3.50;;;;;;;13.52;59.23;99577.22;5099719;28;20377;-64
2021/05/22 09:26:04;;;;;;;4.80;3.50;;;;;;;13.85;58.99;99582.63;5098773;28;20485;-65
2021/05/22 09:28:31;;;;;;;4.13;3.37;;;;;;;13.75;58.48;99595.94;5098438;28;20413;-65
2021/05/22 09:30:58;;;;;;;3.80;3.40;;;;;;;13.20;62.03;99592.66;5098974;28;20408;-64
2021/05/22 09:33:32;;;;;;;4.30;3.67;;;;;;;13.54;61.44;99586.78;5099014;28;20515;-64
2021/05/22 09:36:00;;;;;;;4.03;3.50;;;;;;;13.45;60.45;99581.75;5099178;28;20450;-64
2021/05/22 09:38:34;;;;;;;4.83;3.50;;;;;;;13.51;60.45;99580.75;5099134;28;20421;-64
2021/05/22 09:41:11;;;;;;;4.70;3.20;;;;;;;13.86;60.23;99581.75;5098745;28;20803;-64
2021/05/22 09:43:36;;;;;;;3.90;3.40;;;;;;;13.50;59.79;99566.78;5099430;28;20452;-63
2021/05/22 09:46:08;;;;;;;5.90;3.37;;;;;;;13.58;59.40;99582.34;5098785;28;20517;-64
2021/05/22 09:48:34;;;;;;;5.83;3.43;;;;;;;13.68;58.63;99569.91;5098823;28;20255;-64
2021/05/22 09:51:02;;;;;;;6.83;4.00;;;;;;;14.23;57.91;99583.50;5098959;28;20540;-64
2021/05/22 09:53:36;;;;;;;5.73;3.33;;;;;;;13.82;59.50;99578.31;5098706;28;20418;-64
2021/05/22 09:56:15;;;;;;;3.67;3.30;;;;;;;13.66;59.13;99574.31;5098928;28;20421;-64
2021/05/22 09:58:52;;;;;;;4.97;3.80;;;;;;;13.81;59.03;99569.63;5098690;28;20421;-63
2021/05/22 10:01:20;;;;;;;3.77;3.47;;;;;;;14.40;58.34;99588.34;5098499;28;20381;-63
2021/05/22 10:03:46;;;;;;;6.23;3.50;;;;;;;13.96;58.95;99575.38;5098641;28;20411;-64
2021/05/22 10:06:12;;;;;;;3.77;3.30;;;;;;;13.92;59.46;99572.00;5098398;28;20855;-64
2021/05/22 10:08:38;;;;;;;4.83;3.40;;;;;;;13.50;59.82;99568.56;5099120;28;20783;-65
2021/05/22 10:11:03;;;;;;;5.53;3.60;;;;;;;13.58;59.53;99571.88;5098421;28;20396;-64
2021/05/22 10:13:29;;;;;;;3.97;3.30;;;;;;;13.26;61.10;99575.97;5098489;28;20172;-64
2021/05/22 10:15:56;;;;;;;8.23;3.13;;;;;;;13.19;59.90;99579.63;5098868;28;20164;-65
2021/05/22 10:18:24;;;;;;;4.77;3.30;;;;;;;13.45;59.90;99594.84;5098371;28;20556;-64
2021/05/22 10:20:52;;;;;;;4.10;3.13;;;;;;;12.90;61.31;99587.13;5097554;28;20446;-64
2021/05/22 10:23:18;;;;;;;4.50;3.20;;;;;;;13.03;61.67;99576.44;5098604;28;20418;-63
2021/05/22 10:25:44;;;;;;;4.03;3.10;;;;;;;13.00;62.00;99590.44;5097917;28;20527;-63
2021/05/22 10:28:09;;;;;;;3.83;3.37;;;;;;;13.21;61.98;99577.84;5097255;28;20406;-64
2021/05/22 10:30:35;;;;;;;4.20;3.23;;;;;;;13.37;60.87;99584.53;5098765;28;20601;-64
2021/05/22 10:33:02;;;;;;;4.93;2.97;;;;;;;12.46;62.63;99586.16;5098044;28;20200;-63
2021/05/22 10:35:28;;;;;;;4.10;3.60;;;;;;;13.16;61.47;99598.84;5098084;28;20418;-64
2021/05/22 10:37:54;;;;;;;4.40;3.30;;;;;;;12.54;63.61;99589.53;5098765;28;20410;-63
2021/05/22 10:40:22;;;;;;;4.50;3.47;;;;;;;12.85;62.33;99588.97;5098153;28;20199;-63
2021/05/22 10:42:50;;;;;;;4.20;3.60;;;;;;;13.26;61.63;99607.38;5098057;28;20421;-64
2021/05/22 10:45:35;;;;;;;5.00;3.87;;;;;;;13.11;62.39;99596.34;5098690;28;20709;-64
2021/05/22 10:48:03;;;;;;;4.73;4.27;;;;;;;13.47;62.31;99599.13;5098090;28;20647;-65
2021/05/22 10:50:32;;;;;;;4.53;3.80;;;;;;;12.97;63.55;99601.84;5098081;28;20437;-64
2021/05/22 10:53:16;;;;;;;5.23;4.20;;;;;;;13.02;62.99;99611.34;5097930;28;20411;-64
2021/05/22 10:55:41;;;;;;;5.87;4.70;;;;;;;13.26;63.18;99600.41;5097978;28;20440;-63
2021/05/22 10:58:06;;;;;;;4.37;3.70;;;;;;;13.29;62.82;99599.50;5097962;28;20684;-64
2021/05/22 11:00:32;;;;;;;5.07;3.90;;;;;;;13.44;62.28;99601.81;5097882;28;20178;-65
2021/05/22 11:03:07;;;;;;;4.00;3.60;;;;;;;12.91;63.41;99612.41;5098356;28;20425;-65
2021/05/22 11:05:38;;;;;;;4.43;4.03;;;;;;;13.17;63.43;99607.59;5097835;28;20199;-64
2021/05/22 11:08:03;;;;;;;3.60;3.30;;;;;;;13.01;62.85;99591.31;5098342;28;20819;-65
2021/05/22 11:10:45;;;;;;;6.40;3.63;;;;;;;13.13;63.77;99604.16;5097976;28;20434;-65
2021/05/22 11:13:30;;;;;;;5.87;4.10;;;;;;;13.30;63.09;99599.44;5098035;28;20169;-64
2021/05/22 11:15:57;;;;;;;4.50;3.90;;;;;;;12.98;63.36;99621.00;5097738;28;20434;-64
2021/05/22 11:18:25;;;;;;;7.20;3.80;;;;;;;13.12;62.89;99616.38;5097709;28;20398;-65
2021/05/22 11:21:24;;;;;;;8.13;4.70;;;;;;;13.06;62.96;99619.09;5097750;28;20458;-64
2021/05/22 11:23:58;;;;;;;4.80;4.40;;;;;;;13.14;63.15;99614.59;5075551;28;20497;-64
2021/05/22 11:26:42;;;;;;;5.43;3.80;;;;;;;12.92;63.28;99616.75;5097687;28;20432;-65
2021/05/22 11:29:07;;;;;;;3.90;3.60;;;;;;;13.04;64.00;99623.50;5097850;28;20657;-64
2021/05/22 11:31:33;;;;;;;4.43;3.80;;;;;;;12.90;63.58;99620.28;5097572;28;20442;-64
2021/05/22 11:34:23;;;;;;;5.40;4.00;;;;;;;12.66;64.98;99638.09;5100371;28;20164;-65